Time;durP1;ratioP1;P1;durP2;ratioP2;P2;SDS_P1;SDS_P2;PMS_P1;PMS_P2;Temp;Humidity;BMP_temperature;BMP_pressure;BME280_temperature;BME280_humidity;BME280_pressure;Samples;Min_cycle;Max_cycle;Signal;HPM_P1;HPM_P2
2020/12/24 00:01:27;;;;;;;;;;;9.10;99.90;;;;;;5051046;28;20002;-86
2020/12/24 00:03:52;;;;;;;;;;;9.00;99.90;;;;;;5051237;28;19932;-86
2020/12/24 00:06:19;;;;;;;;;;;9.10;99.90;;;;;;5050074;28;19948;-87
2020/12/24 00:08:44;;;;;;;;;;;9.00;99.90;;;;;;5049301;28;19909;-86
2020/12/24 00:11:10;;;;;;;;;;;9.10;99.90;;;;;;5049250;28;19924;-86
2020/12/24 00:13:35;;;;;;;;;;;9.00;99.90;;;;;;5049315;28;19917;-86
2020/12/24 00:16:02;;;;;;;;;;;9.10;99.90;;;;;;5050533;28;20297;-86
2020/12/24 00:18:27;;;;;;;;;;;9.10;99.90;;;;;;5049567;28;19909;-86
2020/12/24 00:20:53;;;;;;;;;;;9.10;99.90;;;;;;5049511;28;19959;-86
2020/12/24 00:23:19;;;;;;;;;;;9.10;99.90;;;;;;5051058;28;20387;-87
2020/12/24 00:25:44;;;;;;;;;;;9.10;99.90;;;;;;5050943;28;20436;-86
2020/12/24 00:28:10;;;;;;;;;;;9.20;99.90;;;;;;5059083;28;19920;-86
2020/12/24 00:30:40;;;;;;;;;;;9.20;99.90;;;;;;5050669;28;20000;-87
2020/12/24 00:33:06;;;;;;;;;;;9.20;99.90;;;;;;5052146;28;19909;-87
2020/12/24 00:35:31;;;;;;;;;;;9.20;99.90;;;;;;5050739;28;19909;-86
2020/12/24 00:37:57;;;;;;;;;;;9.30;99.90;;;;;;5050557;28;19909;-87
2020/12/24 00:40:22;;;;;;;;;;;9.30;99.90;;;;;;5051908;28;19909;-87
2020/12/24 00:42:48;;;;;;;;;;;9.30;99.90;;;;;;5050847;28;19909;-87
2020/12/24 00:45:13;;;;;;;;;;;9.30;99.90;;;;;;5050651;28;19916;-86
2020/12/24 00:47:39;;;;;;;;;;;9.30;99.90;;;;;;5050630;28;20011;-87
2020/12/24 00:50:04;;;;;;;;;;;9.30;99.90;;;;;;5050543;28;19913;-86
2020/12/24 00:52:30;;;;;;;;;;;9.30;99.90;;;;;;5050702;28;19956;-87
2020/12/24 00:54:55;;;;;;;;;;;9.30;99.90;;;;;;5053346;28;19913;-87
2020/12/24 00:57:20;;;;;;;;;;;9.20;99.90;;;;;;5070833;28;20363;-87
2020/12/24 00:59:46;;;;;;;;;;;9.20;99.90;;;;;;5061141;28;19916;-87
2020/12/24 01:02:11;;;;;;;;;;;9.20;99.90;;;;;;5054219;28;19909;-85
2020/12/24 01:04:37;;;;;;;;;;;9.20;99.90;;;;;;5054000;28;20395;-87
2020/12/24 01:07:02;;;;;;;;;;;9.20;99.90;;;;;;5053860;28;19909;-86
2020/12/24 01:09:28;;;;;;;;;;;9.10;99.90;;;;;;5053778;28;19916;-87
2020/12/24 01:11:53;;;;;;;;;;;9.10;99.90;;;;;;5053911;28;19920;-86
2020/12/24 01:14:19;;;;;;;;;;;9.10;99.90;;;;;;5055283;28;20019;-86
2020/12/24 01:16:44;;;;;;;;;;;9.00;99.90;;;;;;5054963;28;20001;-86
2020/12/24 01:19:10;;;;;;;;;;;9.00;99.90;;;;;;5053942;28;19919;-86
2020/12/24 01:21:35;;;;;;;;;;;8.90;99.90;;;;;;5053710;28;19909;-86
2020/12/24 01:24:00;;;;;;;;;;;8.90;99.90;;;;;;5054917;28;19955;-85
2020/12/24 01:26:26;;;;;;;;;;;8.80;99.90;;;;;;5062791;28;19916;-86
2020/12/24 01:28:51;;;;;;;;;;;8.80;99.90;;;;;;5065280;28;19917;-86
2020/12/24 01:31:17;;;;;;;;;;;8.70;99.90;;;;;;5074664;28;19999;-87
2020/12/24 01:33:42;;;;;;;;;;;8.70;99.90;;;;;;5073467;28;20321;-86
2020/12/24 01:36:08;;;;;;;;;;;8.60;99.90;;;;;;5073312;28;19909;-86
2020/12/24 01:38:33;;;;;;;;;;;8.60;99.90;;;;;;5074649;28;19911;-86
2020/12/24 01:40:59;;;;;;;;;;;8.50;99.90;;;;;;5073680;28;20026;-86
2020/12/24 01:43:25;;;;;;;;;;;8.50;99.90;;;;;;5073412;28;19912;-86
2020/12/24 01:45:54;;;;;;;;;;;8.40;99.90;;;;;;5073300;28;19965;-86
2020/12/24 01:48:20;;;;;;;;;;;8.40;99.90;;;;;;5073237;28;20268;-86
2020/12/24 01:50:45;;;;;;;;;;;8.30;99.90;;;;;;5073031;28;19920;-86
2020/12/24 01:53:14;;;;;;;;;;;8.30;99.90;;;;;;5074504;28;19908;-86
2020/12/24 01:55:39;;;;;;;;;;;8.20;99.90;;;;;;5072896;28;19913;-86
2020/12/24 01:58:06;;;;;;;;;;;8.20;99.90;;;;;;5067262;28;19909;-86
2020/12/24 02:00:31;;;;;;;;;;;8.20;99.90;;;;;;5072056;28;19909;-86
2020/12/24 02:02:57;;;;;;;;;;;8.20;99.90;;;;;;5073043;28;20016;-86
2020/12/24 02:05:22;;;;;;;;;;;8.00;99.90;;;;;;5073673;28;19908;-86
2020/12/24 02:07:48;;;;;;;;;;;7.90;99.90;;;;;;5072819;28;20018;-86
2020/12/24 02:10:13;;;;;;;;;;;7.80;99.90;;;;;;5073946;28;19912;-86
2020/12/24 02:12:39;;;;;;;;;;;7.80;99.90;;;;;;5073000;28;20011;-85
2020/12/24 02:15:04;;;;;;;;;;;7.70;99.90;;;;;;5072810;28;19908;-86
2020/12/24 02:17:30;;;;;;;;;;;7.60;99.90;;;;;;5072619;28;19912;-86
2020/12/24 02:19:55;;;;;;;;;;;7.50;99.90;;;;;;5072509;28;19915;-87
2020/12/24 02:22:20;;;;;;;;;;;7.40;99.90;;;;;;5073904;28;19918;-86
2020/12/24 02:24:46;;;;;;;;;;;7.40;99.90;;;;;;5072416;28;20264;-86
2020/12/24 02:27:12;;;;;;;;;;;7.40;99.90;;;;;;5072234;28;19915;-86
2020/12/24 02:29:37;;;;;;;;;;;7.40;99.90;;;;;;5052560;28;20303;-86
2020/12/24 02:32:03;;;;;;;;;;;7.30;99.90;;;;;;5052496;28;20398;-86
2020/12/24 02:34:28;;;;;;;;;;;7.30;99.90;;;;;;5052554;28;20423;-86
2020/12/24 02:36:54;;;;;;;;;;;7.20;99.90;;;;;;5052041;28;19909;-86
2020/12/24 02:39:19;;;;;;;;;;;7.20;99.90;;;;;;5052305;28;19909;-86
2020/12/24 02:41:45;;;;;;;;;;;7.20;99.90;;;;;;5052128;28;19999;-87
2020/12/24 02:44:10;;;;;;;;;;;7.20;99.90;;;;;;5053391;28;20379;-86
2020/12/24 02:46:36;;;;;;;;;;;7.20;99.90;;;;;;5052067;28;19916;-86
2020/12/24 02:49:02;;;;;;;;;;;7.20;99.90;;;;;;5052041;28;19956;-86
2020/12/24 02:51:27;;;;;;;;;;;7.20;99.90;;;;;;5051965;28;20301;-87
2020/12/24 02:53:53;;;;;;;;;;;7.20;99.90;;;;;;5052203;28;19970;-86
2020/12/24 02:56:18;;;;;;;;;;;7.20;99.90;;;;;;5059899;28;19909;-85
2020/12/24 02:58:44;;;;;;;;;;;7.20;99.90;;;;;;5068382;28;19928;-86
2020/12/24 03:01:09;;;;;;;;;;;7.20;99.90;;;;;;5051826;28;19915;-86
2020/12/24 03:03:34;;;;;;;;;;;7.20;99.90;;;;;;5053112;28;20414;-86
2020/12/24 03:06:00;;;;;;;;;;;7.10;99.90;;;;;;5051539;28;19912;-86
2020/12/24 03:08:26;;;;;;;;;;;7.10;99.90;;;;;;5051791;28;19909;-86
2020/12/24 03:10:51;;;;;;;;;;;7.10;99.90;;;;;;5051627;28;19920;-86
2020/12/24 03:13:17;;;;;;;;;;;7.10;99.90;;;;;;5051759;28;19909;-87
2020/12/24 03:15:42;;;;;;;;;;;7.10;99.90;;;;;;5051559;28;19913;-86
2020/12/24 03:18:08;;;;;;;;;;;7.10;99.90;;;;;;5050652;28;19909;-86
2020/12/24 03:20:33;;;;;;;;;;;7.10;99.90;;;;;;5051461;28;19971;-86
2020/12/24 03:22:59;;;;;;;;;;;7.10;99.90;;;;;;5051464;28;19916;-86
2020/12/24 03:25:24;;;;;;;;;;;7.10;99.90;;;;;;5052287;28;19916;-86
2020/12/24 03:27:50;;;;;;;;;;;7.20;99.90;;;;;;5066305;28;20295;-86
2020/12/24 03:30:15;;;;;;;;;;;7.10;99.90;;;;;;5051275;28;19927;-86
2020/12/24 03:32:41;;;;;;;;;;;7.10;99.90;;;;;;5051601;28;19909;-86
2020/12/24 03:35:07;;;;;;;;;;;7.10;99.90;;;;;;5051269;28;19970;-87
2020/12/24 03:37:32;;;;;;;;;;;7.10;99.90;;;;;;5051502;28;19908;-87
2020/12/24 03:39:58;;;;;;;;;;;7.10;99.90;;;;;;5052750;28;20360;-85
2020/12/24 03:42:23;;;;;;;;;;;7.10;99.90;;;;;;5051143;28;20003;-87
2020/12/24 03:44:49;;;;;;;;;;;7.10;99.90;;;;;;5052460;28;20314;-86
2020/12/24 03:47:14;;;;;;;;;;;7.10;99.90;;;;;;5051196;28;19958;-86
2020/12/24 03:49:40;;;;;;;;;;;7.10;99.90;;;;;;5051155;28;19938;-87
2020/12/24 03:52:05;;;;;;;;;;;7.10;99.90;;;;;;5051361;28;19909;-86
2020/12/24 03:54:31;;;;;;;;;;;7.00;99.90;;;;;;5051230;28;20394;-87
2020/12/24 03:56:56;;;;;;;;;;;7.00;99.90;;;;;;5064502;28;20367;-87
2020/12/24 03:59:21;;;;;;;;;;;7.00;99.90;;;;;;5062663;28;19970;-86
2020/12/24 04:01:47;;;;;;;;;;;7.00;99.90;;;;;;5071260;28;19909;-86
2020/12/24 04:04:12;;;;;;;;;;;7.00;99.90;;;;;;5070970;28;19908;-86
2020/12/24 04:06:38;;;;;;;;;;;7.00;99.90;;;;;;5070965;28;20428;-86
2020/12/24 04:09:03;;;;;;;;;;;7.00;99.90;;;;;;5072329;28;19958;-86
2020/12/24 04:11:29;;;;;;;;;;;7.00;99.90;;;;;;5070931;28;19969;-86
2020/12/24 04:13:54;;;;;;;;;;;7.00;99.90;;;;;;5071048;28;19908;-86
2020/12/24 04:16:21;;;;;;;;;;;7.10;99.90;;;;;;5070901;28;19916;-86
2020/12/24 04:18:46;;;;;;;;;;;7.10;99.90;;;;;;5066343;28;19909;-86
2020/12/24 04:21:12;;;;;;;;;;;7.10;99.90;;;;;;5072117;28;19991;-86
2020/12/24 04:23:37;;;;;;;;;;;7.10;99.90;;;;;;5071167;28;19962;-86
2020/12/24 04:26:03;;;;;;;;;;;7.10;99.90;;;;;;5070851;28;19953;-86
2020/12/24 04:28:28;;;;;;;;;;;7.00;99.90;;;;;;5071462;28;19908;-86
2020/12/24 04:30:54;;;;;;;;;;;7.00;99.90;;;;;;5074518;28;20302;-86
2020/12/24 04:33:19;;;;;;;;;;;7.00;99.90;;;;;;5074623;28;19908;-86
2020/12/24 04:35:45;;;;;;;;;;;6.90;99.90;;;;;;5074529;28;20371;-86
2020/12/24 04:38:10;;;;;;;;;;;6.90;99.90;;;;;;5074617;28;19912;-88
2020/12/24 04:40:36;;;;;;;;;;;6.90;99.90;;;;;;5074562;28;19915;-86
2020/12/24 04:43:04;;;;;;;;;;;6.90;99.90;;;;;;5060458;28;19912;-86
2020/12/24 04:45:33;;;;;;;;;;;6.80;99.90;;;;;;5054461;28;19920;-86
2020/12/24 04:47:59;;;;;;;;;;;6.80;99.90;;;;;;5054444;28;19909;-86
2020/12/24 04:50:25;;;;;;;;;;;6.70;99.90;;;;;;5054326;28;19966;-86
2020/12/24 04:52:50;;;;;;;;;;;6.60;99.90;;;;;;5071200;28;19944;-86
2020/12/24 04:55:17;;;;;;;;;;;6.60;99.90;;;;;;5054412;28;19916;-86
2020/12/24 04:57:43;;;;;;;;;;;6.50;99.90;;;;;;5054067;28;19909;-86
2020/12/24 05:00:09;;;;;;;;;;;6.40;99.90;;;;;;5054323;28;20014;-86
2020/12/24 05:02:34;;;;;;;;;;;6.40;99.90;;;;;;5054324;28;20004;-86
2020/12/24 05:05:02;;;;;;;;;;;6.30;99.90;;;;;;5068743;28;20507;-87
2020/12/24 05:07:28;;;;;;;;;;;6.20;99.90;;;;;;5055192;28;20380;-86
2020/12/24 05:09:54;;;;;;;;;;;6.20;99.90;;;;;;5053957;28;19916;-86
2020/12/24 05:12:29;;;;;;;;;;;6.20;99.90;;;;;;5054136;28;20478;-87
2020/12/24 05:14:55;;;;;;;;;;;6.20;99.90;;;;;;5053974;28;20284;-86
2020/12/24 05:17:22;;;;;;;;;;;6.10;99.90;;;;;;5053716;28;19913;-87
2020/12/24 05:19:59;;;;;;;;;;;6.00;99.90;;;;;;5053851;28;19909;-87
2020/12/24 05:22:24;;;;;;;;;;;6.00;99.90;;;;;;5053781;28;19983;-86
2020/12/24 05:24:50;;;;;;;;;;;6.00;99.90;;;;;;5055007;28;20411;-86
2020/12/24 05:27:17;;;;;;;;;;;6.00;99.90;;;;;;5053618;28;19908;-86
2020/12/24 05:29:43;;;;;;;;;;;6.00;99.90;;;;;;5053696;28;19909;-86
2020/12/24 05:32:09;;;;;;;;;;;6.00;99.90;;;;;;5054817;28;19919;-86
2020/12/24 05:34:35;;;;;;;;;;;6.00;99.90;;;;;;5056646;28;19999;-86
2020/12/24 05:37:14;;;;;;;;;;;6.00;99.90;;;;;;5073475;28;19912;-86
2020/12/24 05:39:40;;;;;;;;;;;6.00;99.90;;;;;;5073008;28;19913;-86
2020/12/24 05:42:06;;;;;;;;;;;6.00;99.90;;;;;;5074145;28;19929;-87
2020/12/24 05:44:32;;;;;;;;;;;6.00;99.90;;;;;;5073371;28;20356;-86
2020/12/24 05:46:58;;;;;;;;;;;6.00;99.90;;;;;;5073134;28;20283;-86
2020/12/24 05:49:25;;;;;;;;;;;6.00;99.90;;;;;;5072952;28;20368;-85
2020/12/24 05:51:53;;;;;;;;;;;5.90;99.90;;;;;;5070338;28;19967;-85
2020/12/24 05:54:20;;;;;;;;;;;5.90;99.90;;;;;;5055867;28;19955;-86
2020/12/24 05:56:45;;;;;;;;;;;5.90;99.90;;;;;;5053100;28;20000;-86
2020/12/24 05:59:18;;;;;;;;;;;5.90;99.90;;;;;;5053230;28;19940;-86
2020/12/24 06:02:03;;;;;;;;;;;5.80;99.90;;;;;;5053011;28;19909;-86
2020/12/24 06:04:46;;;;;;;;;;;5.80;99.90;;;;;;5054201;28;20322;-86
2020/12/24 06:07:15;;;;;;;;;;;5.80;99.90;;;;;;5052784;28;20007;-86
2020/12/24 06:09:41;;;;;;;;;;;5.70;99.90;;;;;;5052861;28;19916;-86
2020/12/24 06:12:17;;;;;;;;;;;5.70;99.90;;;;;;5052861;28;19912;-86
2020/12/24 06:14:47;;;;;;;;;;;5.70;99.90;;;;;;5052975;28;19952;-86
2020/12/24 06:17:13;;;;;;;;;;;5.80;99.90;;;;;;5052443;28;19909;-86
2020/12/24 06:19:39;;;;;;;;;;;5.70;99.90;;;;;;5052646;28;19936;-86
2020/12/24 06:22:04;;;;;;;;;;;5.80;99.90;;;;;;5063263;28;19913;-86
2020/12/24 06:24:34;;;;;;;;;;;5.80;99.90;;;;;;5072914;28;20323;-86
2020/12/24 06:27:01;;;;;;;;;;;5.90;99.90;;;;;;5072742;28;19912;-86
2020/12/24 06:29:29;;;;;;;;;;;5.90;99.90;;;;;;5072616;28;19934;-86
2020/12/24 06:31:54;;;;;;;;;;;5.90;99.90;;;;;;5072548;28;19947;-86
2020/12/24 06:34:23;;;;;;;;;;;6.00;99.90;;;;;;5088739;28;19900;-84
2020/12/24 06:36:49;;;;;;;;;;;5.90;99.90;;;;;;5098394;28;19904;-85
2020/12/24 06:39:35;;;;;;;;;;;5.90;99.90;;;;;;5078350;28;19912;-86
2020/12/24 06:42:00;;;;;;;;;;;5.90;99.90;;;;;;5072075;28;19948;-86
2020/12/24 06:44:44;;;;;;;;;;;5.90;99.90;;;;;;5072044;28;19958;-86
2020/12/24 06:47:13;;;;;;;;;;;5.90;99.90;;;;;;5072222;28;19908;-86
2020/12/24 06:49:39;;;;;;;;;;;5.80;99.90;;;;;;5072034;28;19912;-87
2020/12/24 06:52:04;;;;;;;;;;;5.80;99.90;;;;;;5064665;28;19919;-86
2020/12/24 06:54:29;;;;;;;;;;;5.80;99.90;;;;;;5053281;28;19912;-86
2020/12/24 06:57:14;;;;;;;;;;;5.80;99.90;;;;;;5051766;28;19912;-87
2020/12/24 06:59:40;;;;;;;;;;;5.80;99.90;;;;;;5051842;28;19909;-86
2020/12/24 07:02:05;;;;;;;;;;;5.80;99.90;;;;;;5053158;28;19915;-86
2020/12/24 07:04:35;;;;;;;;;;;5.80;99.90;;;;;;5051818;28;20379;-86
2020/12/24 07:07:00;;;;;;;;;;;5.80;99.90;;;;;;5051653;28;20279;-86
2020/12/24 07:09:26;;;;;;;;;;;5.80;99.90;;;;;;5051709;28;19916;-86
2020/12/24 07:11:55;;;;;;;;;;;5.90;99.90;;;;;;5051795;28;19935;-86
2020/12/24 07:14:24;;;;;;;;;;;5.90;99.90;;;;;;5051798;28;19913;-86
2020/12/24 07:16:50;;;;;;;;;;;6.00;99.90;;;;;;5051545;28;19909;-86
2020/12/24 07:19:16;;;;;;;;;;;6.00;99.90;;;;;;5051683;28;19916;-86
2020/12/24 07:21:45;;;;;;;;;;;6.10;99.90;;;;;;5063631;28;19939;-86
2020/12/24 07:24:11;;;;;;;;;;;6.10;99.90;;;;;;5055349;28;19920;-86
2020/12/24 07:26:36;;;;;;;;;;;6.20;99.90;;;;;;5051535;28;19909;-86
2020/12/24 07:29:02;;;;;;;;;;;6.20;99.90;;;;;;5051529;28;19958;-86
2020/12/24 07:31:28;;;;;;;;;;;6.20;99.90;;;;;;5051376;28;19919;-86
2020/12/24 07:33:53;;;;;;;;;;;6.30;99.90;;;;;;5051515;28;20287;-86
2020/12/24 07:36:23;;;;;;;;;;;6.30;99.90;;;;;;5051289;28;20421;-85
2020/12/24 07:38:49;;;;;;;;;;;6.30;99.90;;;;;;5051501;28;20291;-86
2020/12/24 07:41:15;;;;;;;;;;;6.30;99.90;;;;;;5051297;28;19909;-86
2020/12/24 07:43:40;;;;;;;;;;;6.40;99.90;;;;;;5052663;28;19913;-86
2020/12/24 07:46:07;;;;;;;;;;;6.40;99.90;;;;;;5051620;28;19912;-86
2020/12/24 07:48:32;;;;;;;;;;;6.40;99.90;;;;;;5051103;28;19908;-86
2020/12/24 07:51:06;;;;;;;;;;;6.50;99.90;;;;;;5059569;28;19919;-85
2020/12/24 07:53:31;;;;;;;;;;;6.50;99.90;;;;;;5052327;28;19982;-86
2020/12/24 07:56:04;;;;;;;;;;;6.60;99.90;;;;;;5051165;28;20371;-86
2020/12/24 07:58:29;;;;;;;;;;;6.60;99.90;;;;;;5051467;28;19909;-86
2020/12/24 08:00:56;;;;;;;;;;;6.70;99.90;;;;;;5051271;28;20433;-86
2020/12/24 08:03:21;;;;;;;;;;;6.70;99.90;;;;;;5051532;28;19913;-86
2020/12/24 08:05:47;;;;;;;;;;;6.70;99.90;;;;;;5055056;28;19929;-86
2020/12/24 08:08:20;;;;;;;;;;;6.70;99.90;;;;;;5055188;28;19916;-86
2020/12/24 08:10:45;;;;;;;;;;;6.80;99.90;;;;;;5056484;28;19920;-84
2020/12/24 08:13:11;;;;;;;;;;;6.80;99.90;;;;;;5055087;28;20015;-85
2020/12/24 08:15:41;;;;;;;;;;;6.90;99.90;;;;;;5055210;28;20395;-85
2020/12/24 08:18:11;;;;;;;;;;;6.90;99.90;;;;;;5055196;28;19909;-86
2020/12/24 08:20:39;;;;;;;;;;;6.90;99.90;;;;;;5061627;28;19915;-85
2020/12/24 08:23:11;;;;;;;;;;;6.90;99.90;;;;;;5066770;28;19908;-86
2020/12/24 08:25:36;;;;;;;;;;;7.00;99.90;;;;;;5074952;28;19920;-86
2020/12/24 08:28:02;;;;;;;;;;;7.00;99.90;;;;;;5074799;28;20367;-84
2020/12/24 08:30:28;;;;;;;;;;;6.90;99.90;;;;;;5074657;28;19920;-86
2020/12/24 08:32:53;;;;;;;;;;;6.80;99.90;;;;;;5074940;28;19915;-86
2020/12/24 08:35:19;;;;;;;;;;;6.70;99.90;;;;;;5074837;28;19915;-85
2020/12/24 08:37:44;;;;;;;;;;;6.60;99.90;;;;;;5074160;28;19912;-84
2020/12/24 08:40:22;;;;;;;;;;;6.50;99.90;;;;;;5075851;28;19909;-86
2020/12/24 08:42:48;;;;;;;;;;;6.40;99.90;;;;;;5071787;28;19909;-85
2020/12/24 08:45:14;;;;;;;;;;;6.30;99.90;;;;;;5062869;28;20295;-85
2020/12/24 08:47:40;;;;;;;;;;;6.20;99.90;;;;;;5054244;28;19913;-85
2020/12/24 08:50:06;;;;;;;;;;;6.20;99.90;;;;;;5057708;28;19916;-85
2020/12/24 08:52:35;;;;;;;;;;;6.20;99.90;;;;;;5067746;28;20379;-85
2020/12/24 08:55:01;;;;;;;;;;;6.10;99.90;;;;;;5074362;28;19909;-85
2020/12/24 08:57:27;;;;;;;;;;;6.10;99.90;;;;;;5074033;28;19909;-86
2020/12/24 08:59:53;;;;;;;;;;;6.10;99.90;;;;;;5074356;28;19909;-85
2020/12/24 09:02:29;;;;;;;;;;;6.10;99.90;;;;;;5062277;28;19995;-85
2020/12/24 09:04:56;;;;;;;;;;;6.20;99.90;;;;;;5054332;28;19966;-85
2020/12/24 09:07:22;;;;;;;;;;;6.30;99.90;;;;;;5054101;28;20264;-85
2020/12/24 09:09:59;;;;;;;;;;;6.30;99.90;;;;;;5055565;28;19913;-85
2020/12/24 09:12:25;;;;;;;;;;;6.30;99.90;;;;;;5054235;28;20511;-85
2020/12/24 09:14:57;;;;;;;;;;;6.40;99.90;;;;;;5055382;28;19912;-85
2020/12/24 09:17:23;;;;;;;;;;;6.40;99.90;;;;;;5053942;28;19909;-85
2020/12/24 09:19:59;;;;;;;;;;;6.50;99.90;;;;;;5053885;28;19916;-84
2020/12/24 09:22:24;;;;;;;;;;;6.60;99.90;;;;;;5071255;28;19909;-86
2020/12/24 09:24:50;;;;;;;;;;;6.60;99.90;;;;;;5073919;28;20263;-86
2020/12/24 09:27:15;;;;;;;;;;;6.60;99.90;;;;;;5074853;28;19915;-84
2020/12/24 09:29:40;;;;;;;;;;;6.70;99.90;;;;;;5074828;28;20298;-85
2020/12/24 09:32:06;;;;;;;;;;;6.80;99.90;;;;;;5073930;28;19966;-84
2020/12/24 09:34:31;;;;;;;;;;;6.80;99.90;;;;;;5074858;28;19995;-85
2020/12/24 09:36:57;;;;;;;;;;;6.90;99.90;;;;;;5073539;28;19912;-86
2020/12/24 09:39:23;;;;;;;;;;;7.00;99.90;;;;;;5074224;28;19909;-85
2020/12/24 09:41:49;;;;;;;;;;;7.10;99.90;;;;;;5073225;28;20373;-86
2020/12/24 09:44:15;;;;;;;;;;;7.10;99.90;;;;;;5073537;28;20011;-85
2020/12/24 09:46:41;;;;;;;;;;;7.10;99.90;;;;;;5074904;28;19912;-85
2020/12/24 09:49:07;;;;;;;;;;;7.00;99.90;;;;;;5073567;28;19909;-86
2020/12/24 09:51:35;;;;;;;;;;;7.00;99.90;;;;;;5070498;28;19999;-85
2020/12/24 09:54:01;;;;;;;;;;;6.90;99.90;;;;;;5069546;28;19974;-85
2020/12/24 09:56:26;;;;;;;;;;;6.90;99.90;;;;;;5074366;28;20417;-85
2020/12/24 09:58:52;;;;;;;;;;;6.90;99.90;;;;;;5074494;28;19908;-85
2020/12/24 10:01:17;;;;;;;;;;;6.90;99.90;;;;;;5073308;28;19908;-85
2020/12/24 10:03:43;;;;;;;;;;;6.90;99.90;;;;;;5072981;28;19909;-85
2020/12/24 10:06:09;;;;;;;;;;;6.90;99.90;;;;;;5072982;28;20347;-86
2020/12/24 10:08:34;;;;;;;;;;;6.90;99.90;;;;;;5074223;28;20331;-84
2020/12/24 10:10:59;;;;;;;;;;;6.90;99.90;;;;;;5073061;28;19959;-85
2020/12/24 10:13:25;;;;;;;;;;;6.90;99.90;;;;;;5072922;28;20424;-85
2020/12/24 10:15:50;;;;;;;;;;;6.90;99.90;;;;;;5072590;28;19913;-84
2020/12/24 10:18:16;;;;;;;;;;;6.90;99.90;;;;;;5072847;28;19999;-84
2020/12/24 10:20:41;;;;;;;;;;;6.90;99.90;;;;;;5072644;28;19935;-85
2020/12/24 10:23:09;;;;;;;;;;;6.90;99.90;;;;;;5064210;28;19958;-85
2020/12/24 10:25:37;;;;;;;;;;;6.90;99.90;;;;;;5071912;28;20378;-84
2020/12/24 10:28:02;;;;;;;;;;;7.00;99.90;;;;;;5070880;28;19908;-84
2020/12/24 10:30:28;;;;;;;;;;;7.00;99.90;;;;;;5070696;28;20207;-84
2020/12/24 10:32:53;;;;;;;;;;;7.10;99.90;;;;;;5070600;28;19909;-83
2020/12/24 10:35:19;;;;;;;;;;;7.20;99.90;;;;;;5070347;28;19922;-84
2020/12/24 10:37:44;;;;;;;;;;;7.30;99.90;;;;;;5070150;28;19909;-85
2020/12/24 10:40:10;;;;;;;;;;;7.40;99.90;;;;;;5070239;28;20281;-85
2020/12/24 10:42:38;;;;;;;;;;;7.50;99.90;;;;;;5071393;28;19909;-85
2020/12/24 10:45:04;;;;;;;;;;;7.60;99.90;;;;;;5072269;28;19916;-84
2020/12/24 10:47:29;;;;;;;;;;;7.60;99.90;;;;;;5073251;28;20039;-85
2020/12/24 10:49:55;;;;;;;;;;;7.70;99.90;;;;;;5073408;28;19908;-84
2020/12/24 10:52:20;;;;;;;;;;;7.70;99.90;;;;;;5072045;28;19916;-84
2020/12/24 10:54:45;;;;;;;;;;;7.60;99.90;;;;;;5051850;28;19999;-84
2020/12/24 10:57:11;;;;;;;;;;;7.60;99.90;;;;;;5051699;28;19963;-84
2020/12/24 10:59:36;;;;;;;;;;;7.60;99.90;;;;;;5051858;28;19915;-84
2020/12/24 11:02:02;;;;;;;;;;;7.60;99.90;;;;;;5051958;28;19963;-84
2020/12/24 11:04:29;;;;;;;;;;;7.50;99.90;;;;;;5051866;28;20368;-84
2020/12/24 11:06:55;;;;;;;;;;;7.50;99.90;;;;;;5051550;28;19916;-84
2020/12/24 11:09:20;;;;;;;;;;;7.50;99.90;;;;;;5051846;28;19913;-84
2020/12/24 11:11:46;;;;;;;;;;;7.50;99.90;;;;;;5051557;28;19920;-85
2020/12/24 11:14:11;;;;;;;;;;;7.50;99.90;;;;;;5051820;28;20336;-85
2020/12/24 11:16:37;;;;;;;;;;;7.50;99.90;;;;;;5052649;28;19909;-85
2020/12/24 11:19:03;;;;;;;;;;;7.60;99.90;;;;;;5052842;28;19951;-84
2020/12/24 11:21:32;;;;;;;;;;;7.70;99.90;;;;;;5061805;28;19909;-84
2020/12/24 11:24:04;;;;;;;;;;;7.70;99.90;;;;;;5064551;28;20299;-84
2020/12/24 11:26:30;;;;;;;;;;;7.70;99.90;;;;;;5070098;28;19912;-85
2020/12/24 11:28:55;;;;;;;;;;;7.60;99.90;;;;;;5071326;28;19915;-84
2020/12/24 11:31:21;;;;;;;;;;;7.50;99.90;;;;;;5072624;28;19916;-85
2020/12/24 11:33:47;;;;;;;;;;;7.50;99.90;;;;;;5071382;28;19908;-85
2020/12/24 11:36:12;;;;;;;;;;;7.40;99.90;;;;;;5072422;28;19908;-84
2020/12/24 11:38:38;;;;;;;;;;;7.40;99.90;;;;;;5070419;28;19967;-85
2020/12/24 11:41:03;;;;;;;;;;;7.40;99.90;;;;;;5071150;28;19913;-84
2020/12/24 11:43:29;;;;;;;;;;;7.30;99.90;;;;;;5071218;28;19913;-84
2020/12/24 11:45:54;;;;;;;;;;;7.30;99.90;;;;;;5071164;28;20414;-84
2020/12/24 11:48:20;;;;;;;;;;;7.30;99.90;;;;;;5071275;28;20321;-85
2020/12/24 11:50:45;;;;;;;;;;;7.30;99.90;;;;;;5071095;28;19920;-84
2020/12/24 11:53:10;;;;;;;;;;;7.30;99.90;;;;;;5070961;28;19913;-84
2020/12/24 11:55:36;;;;;;;;;;;7.30;99.90;;;;;;5062697;28;19952;-84
2020/12/24 11:58:02;;;;;;;;;;;7.30;99.90;;;;;;5071194;28;19915;-85
2020/12/24 12:00:28;;;;;;;;;;;7.30;99.90;;;;;;5071442;28;19912;-84
2020/12/24 12:02:53;;;;;;;;;;;7.20;99.90;;;;;;5071175;28;19916;-84
2020/12/24 12:05:19;;;;;;;;;;;7.30;99.90;;;;;;5071035;28;19915;-84
2020/12/24 12:07:44;;;;;;;;;;;7.30;99.90;;;;;;5070741;28;20429;-84
2020/12/24 12:10:10;;;;;;;;;;;7.20;99.90;;;;;;5070345;28;19908;-84
2020/12/24 12:12:35;;;;;;;;;;;7.20;99.90;;;;;;5062565;28;19909;-85
2020/12/24 12:15:01;;;;;;;;;;;7.20;99.90;;;;;;5071171;28;19912;-85
2020/12/24 12:17:26;;;;;;;;;;;7.20;99.90;;;;;;5070370;28;19909;-85
2020/12/24 12:19:52;;;;;;;;;;;7.30;99.90;;;;;;5065610;28;19944;-85
2020/12/24 12:22:17;;;;;;;;;;;7.30;99.90;;;;;;5067999;28;20363;-85
2020/12/24 12:24:43;;;;;;;;;;;7.30;99.90;;;;;;5071040;28;19991;-85
2020/12/24 12:27:09;;;;;;;;;;;7.30;99.90;;;;;;5072023;28;20015;-86
2020/12/24 12:29:35;;;;;;;;;;;7.30;99.90;;;;;;5081356;28;19901;-85
2020/12/24 12:32:00;;;;;;;;;;;7.20;99.90;;;;;;5096677;28;19972;-86
2020/12/24 12:34:26;;;;;;;;;;;7.20;99.90;;;;;;5077461;28;19935;-85
2020/12/24 12:36:52;;;;;;;;;;;7.20;99.90;;;;;;5072440;28;19951;-85
2020/12/24 12:39:19;;;;;;;;;;;7.20;99.90;;;;;;5073910;28;20008;-85
2020/12/24 12:41:45;;;;;;;;;;;7.20;99.90;;;;;;5071978;28;19909;-85
2020/12/24 12:44:11;;;;;;;;;;;7.20;99.90;;;;;;5071237;28;19920;-84
2020/12/24 12:46:36;;;;;;;;;;;7.20;99.90;;;;;;5070926;28;19909;-85
2020/12/24 12:49:02;;;;;;;;;;;7.20;99.90;;;;;;5071953;28;19915;-85
2020/12/24 12:51:27;;;;;;;;;;;7.10;99.90;;;;;;5065879;28;19913;-85
2020/12/24 12:53:53;;;;;;;;;;;7.10;99.90;;;;;;5074324;28;19938;-85
2020/12/24 12:56:22;;;;;;;;;;;7.10;99.90;;;;;;5074106;28;20291;-84
2020/12/24 12:58:48;;;;;;;;;;;7.10;99.90;;;;;;5069804;28;19915;-85
2020/12/24 13:01:17;;;;;;;;;;;7.20;99.90;;;;;;5057553;28;19909;-85
2020/12/24 13:03:44;;;;;;;;;;;7.20;99.90;;;;;;5054303;28;20031;-85
2020/12/24 13:06:27;;;;;;;;;;;7.30;99.90;;;;;;5054135;28;19909;-85
2020/12/24 13:08:53;;;;;;;;;;;7.30;99.90;;;;;;5054486;28;20313;-85
2020/12/24 13:11:18;;;;;;;;;;;7.30;99.90;;;;;;5055286;28;19920;-85
2020/12/24 13:13:44;;;;;;;;;;;7.30;99.90;;;;;;5054226;28;20004;-85
2020/12/24 13:16:10;;;;;;;;;;;7.30;99.90;;;;;;5055133;28;20405;-85
2020/12/24 13:18:35;;;;;;;;;;;7.40;99.90;;;;;;5053929;28;19909;-85
2020/12/24 13:21:01;;;;;;;;;;;7.40;99.90;;;;;;5053819;28;19928;-85
2020/12/24 13:23:27;;;;;;;;;;;7.40;99.90;;;;;;5053789;28;20000;-85
2020/12/24 13:25:53;;;;;;;;;;;7.40;99.90;;;;;;5053638;28;19913;-85
2020/12/24 13:28:18;;;;;;;;;;;7.40;99.90;;;;;;5062650;28;20382;-84
2020/12/24 13:30:44;;;;;;;;;;;7.30;99.90;;;;;;5062136;28;19913;-85
2020/12/24 13:33:09;;;;;;;;;;;7.30;99.90;;;;;;5053530;28;19909;-87
2020/12/24 13:35:35;;;;;;;;;;;7.40;99.90;;;;;;5053486;28;20248;-86
2020/12/24 13:38:00;;;;;;;;;;;7.40;99.90;;;;;;5053505;28;19913;-86
2020/12/24 13:40:26;;;;;;;;;;;7.40;99.90;;;;;;5053695;28;19908;-86
2020/12/24 13:42:51;;;;;;;;;;;7.40;99.90;;;;;;5053639;28;19916;-85
2020/12/24 13:45:17;;;;;;;;;;;7.50;99.90;;;;;;5064573;28;20010;-86
2020/12/24 13:47:43;;;;;;;;;;;7.50;99.90;;;;;;5065483;28;19912;-85
2020/12/24 13:50:09;;;;;;;;;;;7.50;99.90;;;;;;5060895;28;19915;-85
2020/12/24 13:52:34;;;;;;;;;;;7.50;99.90;;;;;;5079600;28;19912;-86
2020/12/24 13:54:59;;;;;;;;;;;7.60;99.90;;;;;;5063828;28;19909;-86
2020/12/24 13:57:25;;;;;;;;;;;7.60;99.90;;;;;;5078702;28;20329;-86
2020/12/24 13:59:50;;;;;;;;;;;7.60;99.90;;;;;;5073192;28;19915;-85
2020/12/24 14:02:16;;;;;;;;;;;7.60;99.90;;;;;;5073802;28;19908;-86
2020/12/24 14:04:41;;;;;;;;;;;7.60;99.90;;;;;;5073269;28;20371;-86
2020/12/24 14:07:07;;;;;;;;;;;7.60;99.90;;;;;;5072734;28;20275;-86
2020/12/24 14:09:32;;;;;;;;;;;7.60;99.90;;;;;;5073804;28;19908;-89
2020/12/24 14:11:58;;;;;;;;;;;7.70;99.90;;;;;;5073609;28;20291;-88
2020/12/24 14:14:23;;;;;;;;;;;7.70;99.90;;;;;;5071738;28;19909;-87
2020/12/24 14:16:49;;;;;;;;;;;7.70;99.90;;;;;;5058046;28;20480;-87
2020/12/24 14:19:15;;;;;;;;;;;7.70;99.90;;;;;;5073919;28;20396;-87
2020/12/24 14:21:42;;;;;;;;;;;7.60;99.90;;;;;;5073115;28;19915;-87
2020/12/24 14:24:08;;;;;;;;;;;7.60;99.90;;;;;;5072973;28;19939;-87
2020/12/24 14:26:33;;;;;;;;;;;7.60;99.90;;;;;;5072965;28;19912;-87